sensor_id;sensor_type;location;lat;lon;timestamp;P1;durP1;ratioP1;P2;durP2;ratioP2
7935;SDS011;4013;49.744;8.118;2024-03-02T05:30:56;10.07;;;8.17;;
7935;SDS011;4013;49.744;8.118;2024-03-02T05:33:23;11.47;;;8.30;;
7935;SDS011;4013;49.744;8.118;2024-03-02T05:35:50;12.23;;;8.37;;
7935;SDS011;4013;49.744;8.118;2024-03-02T05:38:16;9.93;;;8.13;;
7935;SDS011;4013;49.744;8.118;2024-03-02T05:40:44;12.43;;;8.37;;
7935;SDS011;4013;49.744;8.118;2024-03-02T05:43:10;10.33;;;8.23;;
7935;SDS011;4013;49.744;8.118;2024-03-02T05:45:37;10.13;;;7.83;;
7935;SDS011;4013;49.744;8.118;2024-03-02T05:48:07;9.90;;;8.03;;
7935;SDS011;4013;49.744;8.118;2024-03-02T05:50:34;10.57;;;7.80;;
7935;SDS011;4013;49.744;8.118;2024-03-02T05:53:01;9.93;;;8.23;;
7935;SDS011;4013;49.744;8.118;2024-03-02T05:55:28;10.40;;;8.00;;
7935;SDS011;4013;49.744;8.118;2024-03-02T05:57:55;11.93;;;7.63;;
7935;SDS011;4013;49.744;8.118;2024-03-02T06:00:36;9.77;;;7.47;;
7935;SDS011;4013;49.744;8.118;2024-03-02T06:03:03;9.30;;;7.03;;
7935;SDS011;4013;49.744;8.118;2024-03-02T06:05:32;8.73;;;7.57;;
7935;SDS011;4013;49.744;8.118;2024-03-02T06:07:59;9.73;;;7.60;;
7935;SDS011;4013;49.744;8.118;2024-03-02T06:10:26;9.57;;;7.57;;
7935;SDS011;4013;49.744;8.118;2024-03-02T06:12:53;10.63;;;8.03;;
7935;SDS011;4013;49.744;8.118;2024-03-02T06:15:20;10.73;;;7.47;;
7935;SDS011;4013;49.744;8.118;2024-03-02T06:17:47;9.87;;;7.50;;
7935;SDS011;4013;49.744;8.118;2024-03-02T06:20:14;10.27;;;7.67;;
7935;SDS011;4013;49.744;8.118;2024-03-02T06:22:42;11.73;;;8.03;;
7935;SDS011;4013;49.744;8.118;2024-03-02T06:25:09;10.23;;;8.53;;
7935;SDS011;4013;49.744;8.118;2024-03-02T06:27:36;10.00;;;8.07;;
7935;SDS011;4013;49.744;8.118;2024-03-02T06:30:03;10.30;;;8.20;;
7935;SDS011;4013;49.744;8.118;2024-03-02T06:32:30;11.87;;;8.13;;
7935;SDS011;4013;49.744;8.118;2024-03-02T06:34:57;10.37;;;8.17;;
7935;SDS011;4013;49.744;8.118;2024-03-02T06:37:24;11.13;;;8.47;;
7935;SDS011;4013;49.744;8.118;2024-03-02T06:39:53;11.23;;;8.33;;
7935;SDS011;4013;49.744;8.118;2024-03-02T06:42:20;11.40;;;8.33;;
7935;SDS011;4013;49.744;8.118;2024-03-02T06:44:47;10.10;;;8.33;;
7935;SDS011;4013;49.744;8.118;2024-03-02T06:47:14;11.93;;;8.77;;
7935;SDS011;4013;49.744;8.118;2024-03-02T06:49:41;11.23;;;8.70;;
7935;SDS011;4013;49.744;8.118;2024-03-02T06:52:08;10.30;;;8.57;;
7935;SDS011;4013;49.744;8.118;2024-03-02T06:54:36;10.83;;;8.77;;
7935;SDS011;4013;49.744;8.118;2024-03-02T06:57:04;12.70;;;9.00;;
7935;SDS011;4013;49.744;8.118;2024-03-02T06:59:31;13.60;;;8.97;;
7935;SDS011;4013;49.744;8.118;2024-03-02T07:01:58;10.90;;;8.63;;
7935;SDS011;4013;49.744;8.118;2024-03-02T07:04:26;12.07;;;8.47;;
7935;SDS011;4013;49.744;8.118;2024-03-02T07:06:53;10.83;;;8.37;;
7935;SDS011;4013;49.744;8.118;2024-03-02T07:09:20;11.60;;;8.63;;
7935;SDS011;4013;49.744;8.118;2024-03-02T07:11:48;9.80;;;8.50;;
7935;SDS011;4013;49.744;8.118;2024-03-02T07:14:16;13.67;;;9.33;;
7935;SDS011;4013;49.744;8.118;2024-03-02T07:16:44;11.73;;;8.60;;
7935;SDS011;4013;49.744;8.118;2024-03-02T07:19:11;13.53;;;9.47;;
7935;SDS011;4013;49.744;8.118;2024-03-02T07:21:37;11.67;;;9.17;;
7935;SDS011;4013;49.744;8.118;2024-03-02T07:24:05;9.73;;;8.23;;
7935;SDS011;4013;49.744;8.118;2024-03-02T07:26:34;10.50;;;8.60;;
7935;SDS011;4013;49.744;8.118;2024-03-02T07:29:01;13.43;;;9.03;;
7935;SDS011;4013;49.744;8.118;2024-03-02T07:31:29;9.83;;;8.40;;
7935;SDS011;4013;49.744;8.118;2024-03-02T07:33:56;10.53;;;7.90;;
7935;SDS011;4013;49.744;8.118;2024-03-02T07:36:23;12.70;;;8.87;;
7935;SDS011;4013;49.744;8.118;2024-03-02T07:38:50;11.43;;;8.07;;
7935;SDS011;4013;49.744;8.118;2024-03-02T07:41:17;11.90;;;8.77;;
7935;SDS011;4013;49.744;8.118;2024-03-02T07:43:44;11.47;;;8.57;;
7935;SDS011;4013;49.744;8.118;2024-03-02T07:46:11;11.73;;;8.83;;
7935;SDS011;4013;49.744;8.118;2024-03-02T07:48:39;13.77;;;9.57;;
7935;SDS011;4013;49.744;8.118;2024-03-02T07:51:08;10.10;;;7.83;;
7935;SDS011;4013;49.744;8.118;2024-03-02T07:53:35;10.60;;;8.60;;
7935;SDS011;4013;49.744;8.118;2024-03-02T07:56:02;21.33;;;13.57;;
7935;SDS011;4013;49.744;8.118;2024-03-02T07:58:30;26.90;;;16.70;;
7935;SDS011;4013;49.744;8.118;2024-03-02T08:00:58;15.70;;;11.13;;
7935;SDS011;4013;49.744;8.118;2024-03-02T08:03:26;14.23;;;10.63;;
7935;SDS011;4013;49.744;8.118;2024-03-02T08:05:55;9.93;;;7.87;;
7935;SDS011;4013;49.744;8.118;2024-03-02T08:08:22;9.17;;;7.30;;
7935;SDS011;4013;49.744;8.118;2024-03-02T08:10:49;10.93;;;8.10;;
7935;SDS011;4013;49.744;8.118;2024-03-02T08:13:16;8.57;;;6.97;;
7935;SDS011;4013;49.744;8.118;2024-03-02T08:15:43;8.23;;;6.83;;
7935;SDS011;4013;49.744;8.118;2024-03-02T08:18:11;8.40;;;7.50;;
7935;SDS011;4013;49.744;8.118;2024-03-02T08:20:38;8.90;;;7.37;;
7935;SDS011;4013;49.744;8.118;2024-03-02T08:23:08;8.47;;;6.97;;
7935;SDS011;4013;49.744;8.118;2024-03-02T08:25:35;8.43;;;7.20;;
7935;SDS011;4013;49.744;8.118;2024-03-02T08:28:03;7.80;;;6.47;;
7935;SDS011;4013;49.744;8.118;2024-03-02T08:30:30;7.17;;;6.27;;
7935;SDS011;4013;49.744;8.118;2024-03-02T08:32:57;8.43;;;6.67;;
7935;SDS011;4013;49.744;8.118;2024-03-02T08:35:25;10.17;;;7.23;;
7935;SDS011;4013;49.744;8.118;2024-03-02T08:37:53;7.73;;;6.90;;
7935;SDS011;4013;49.744;8.118;2024-03-02T08:40:21;8.13;;;6.87;;
7935;SDS011;4013;49.744;8.118;2024-03-02T08:42:48;8.97;;;6.77;;
7935;SDS011;4013;49.744;8.118;2024-03-02T08:45:15;8.50;;;6.43;;
7935;SDS011;4013;49.744;8.118;2024-03-02T08:47:42;8.10;;;6.60;;
7935;SDS011;4013;49.744;8.118;2024-03-02T08:50:09;10.50;;;8.17;;
7935;SDS011;4013;49.744;8.118;2024-03-02T08:52:36;10.77;;;7.87;;
7935;SDS011;4013;49.744;8.118;2024-03-02T08:55:03;8.40;;;6.63;;
7935;SDS011;4013;49.744;8.118;2024-03-02T08:57:37;8.43;;;6.73;;
7935;SDS011;4013;49.744;8.118;2024-03-02T09:00:05;7.67;;;6.40;;
7935;SDS011;4013;49.744;8.118;2024-03-02T09:02:33;9.00;;;6.53;;
7935;SDS011;4013;49.744;8.118;2024-03-02T09:05:00;7.90;;;6.43;;
7935;SDS011;4013;49.744;8.118;2024-03-02T09:07:27;9.17;;;6.37;;
7935;SDS011;4013;49.744;8.118;2024-03-02T09:09:56;6.83;;;6.07;;
7935;SDS011;4013;49.744;8.118;2024-03-02T09:12:24;7.87;;;6.77;;
7935;SDS011;4013;49.744;8.118;2024-03-02T09:14:55;7.63;;;5.80;;
7935;SDS011;4013;49.744;8.118;2024-03-02T09:17:22;9.47;;;6.33;;
7935;SDS011;4013;49.744;8.118;2024-03-02T09:19:49;9.63;;;6.67;;
7935;SDS011;4013;49.744;8.118;2024-03-02T09:22:17;7.33;;;6.13;;
7935;SDS011;4013;49.744;8.118;2024-03-02T09:24:45;6.80;;;5.53;;
7935;SDS011;4013;49.744;8.118;2024-03-02T09:27:12;7.43;;;5.87;;
7935;SDS011;4013;49.744;8.118;2024-03-02T09:29:39;7.53;;;6.27;;
7935;SDS011;4013;49.744;8.118;2024-03-02T09:32:08;7.77;;;5.97;;
7935;SDS011;4013;49.744;8.118;2024-03-02T09:34:38;7.80;;;6.50;;
7935;SDS011;4013;49.744;8.118;2024-03-02T09:37:05;8.50;;;6.67;;
7935;SDS011;4013;49.744;8.118;2024-03-02T09:39:33;7.27;;;6.50;;
7935;SDS011;4013;49.744;8.118;2024-03-02T09:41:59;7.43;;;6.10;;
7935;SDS011;4013;49.744;8.118;2024-03-02T09:44:26;9.23;;;6.90;;
7935;SDS011;4013;49.744;8.118;2024-03-02T09:46:54;8.47;;;6.30;;
7935;SDS011;4013;49.744;8.118;2024-03-02T09:49:23;7.50;;;5.90;;
7935;SDS011;4013;49.744;8.118;2024-03-02T09:51:51;10.80;;;6.73;;
7935;SDS011;4013;49.744;8.118;2024-03-02T09:54:18;8.87;;;6.83;;
7935;SDS011;4013;49.744;8.118;2024-03-02T09:56:46;7.03;;;5.97;;
7935;SDS011;4013;49.744;8.118;2024-03-02T09:59:13;6.70;;;5.93;;
7935;SDS011;4013;49.744;8.118;2024-03-02T10:01:55;7.47;;;5.67;;
7935;SDS011;4013;49.744;8.118;2024-03-02T10:04:24;8.07;;;6.23;;
7935;SDS011;4013;49.744;8.118;2024-03-02T10:06:52;7.27;;;5.30;;
7935;SDS011;4013;49.744;8.118;2024-03-02T10:09:37;9.43;;;6.73;;
7935;SDS011;4013;49.744;8.118;2024-03-02T10:12:04;28.57;;;13.93;;
7935;SDS011;4013;49.744;8.118;2024-03-02T10:14:32;9.70;;;6.70;;
7935;SDS011;4013;49.744;8.118;2024-03-02T10:17:03;8.33;;;6.30;;
7935;SDS011;4013;49.744;8.118;2024-03-02T10:19:32;8.07;;;6.83;;
7935;SDS011;4013;49.744;8.118;2024-03-02T10:22:00;13.97;;;10.17;;
7935;SDS011;4013;49.744;8.118;2024-03-02T10:24:28;10.47;;;7.37;;
7935;SDS011;4013;49.744;8.118;2024-03-02T10:27:04;12.17;;;8.50;;
7935;SDS011;4013;49.744;8.118;2024-03-02T10:29:36;10.70;;;8.37;;
7935;SDS011;4013;49.744;8.118;2024-03-02T10:32:04;10.70;;;8.23;;
7935;SDS011;4013;49.744;8.118;2024-03-02T10:34:33;12.87;;;8.30;;
7935;SDS011;4013;49.744;8.118;2024-03-02T10:37:02;9.50;;;7.33;;
7935;SDS011;4013;49.744;8.118;2024-03-02T10:39:29;7.87;;;6.73;;
7935;SDS011;4013;49.744;8.118;2024-03-02T10:41:57;9.90;;;7.60;;
7935;SDS011;4013;49.744;8.118;2024-03-02T10:44:28;9.87;;;7.23;;
7935;SDS011;4013;49.744;8.118;2024-03-02T10:46:56;8.93;;;6.73;;
7935;SDS011;4013;49.744;8.118;2024-03-02T10:49:26;9.77;;;7.63;;
7935;SDS011;4013;49.744;8.118;2024-03-02T10:51:55;10.43;;;7.23;;
7935;SDS011;4013;49.744;8.118;2024-03-02T10:54:22;10.93;;;7.87;;
7935;SDS011;4013;49.744;8.118;2024-03-02T10:56:52;12.63;;;8.40;;
7935;SDS011;4013;49.744;8.118;2024-03-02T10:59:22;19.87;;;12.33;;
7935;SDS011;4013;49.744;8.118;2024-03-02T11:01:55;25.37;;;14.00;;
7935;SDS011;4013;49.744;8.118;2024-03-02T11:04:24;11.47;;;8.37;;
7935;SDS011;4013;49.744;8.118;2024-03-02T11:06:52;9.67;;;6.83;;
7935;SDS011;4013;49.744;8.118;2024-03-02T11:09:25;11.00;;;7.07;;
7935;SDS011;4013;49.744;8.118;2024-03-02T11:11:56;7.27;;;5.87;;
7935;SDS011;4013;49.744;8.118;2024-03-02T11:14:29;8.30;;;6.73;;
7935;SDS011;4013;49.744;8.118;2024-03-02T11:16:58;8.17;;;6.70;;
7935;SDS011;4013;49.744;8.118;2024-03-02T11:19:28;9.27;;;5.87;;
7935;SDS011;4013;49.744;8.118;2024-03-02T11:21:58;8.43;;;5.80;;
7935;SDS011;4013;49.744;8.118;2024-03-02T11:24:29;5.90;;;5.30;;
7935;SDS011;4013;49.744;8.118;2024-03-02T11:27:02;7.70;;;5.90;;
7935;SDS011;4013;49.744;8.118;2024-03-02T11:29:44;7.07;;;5.23;;
7935;SDS011;4013;49.744;8.118;2024-03-02T11:32:16;8.20;;;5.40;;
7935;SDS011;4013;49.744;8.118;2024-03-02T11:34:45;6.83;;;5.10;;
7935;SDS011;4013;49.744;8.118;2024-03-02T11:37:16;5.83;;;4.90;;
7935;SDS011;4013;49.744;8.118;2024-03-02T11:39:44;7.50;;;5.30;;
7935;SDS011;4013;49.744;8.118;2024-03-02T11:42:11;6.60;;;4.50;;
7935;SDS011;4013;49.744;8.118;2024-03-02T11:44:41;5.37;;;4.50;;
7935;SDS011;4013;49.744;8.118;2024-03-02T11:47:10;5.30;;;4.50;;
7935;SDS011;4013;49.744;8.118;2024-03-02T11:49:41;5.27;;;4.37;;
7935;SDS011;4013;49.744;8.118;2024-03-02T11:52:10;6.77;;;5.07;;
7935;SDS011;4013;49.744;8.118;2024-03-02T11:54:40;6.17;;;4.87;;
7935;SDS011;4013;49.744;8.118;2024-03-02T11:57:12;6.17;;;4.20;;
7935;SDS011;4013;49.744;8.118;2024-03-02T11:59:40;6.80;;;4.40;;
7935;SDS011;4013;49.744;8.118;2024-03-02T12:02:12;6.30;;;4.50;;
7935;SDS011;4013;49.744;8.118;2024-03-02T12:04:42;4.77;;;3.90;;
7935;SDS011;4013;49.744;8.118;2024-03-02T12:07:09;6.37;;;4.80;;
7935;SDS011;4013;49.744;8.118;2024-03-02T12:09:37;4.87;;;4.37;;
7935;SDS011;4013;49.744;8.118;2024-03-02T12:12:06;6.10;;;4.07;;
7935;SDS011;4013;49.744;8.118;2024-03-02T12:14:35;7.23;;;4.57;;
7935;SDS011;4013;49.744;8.118;2024-03-02T12:17:03;6.30;;;4.40;;
7935;SDS011;4013;49.744;8.118;2024-03-02T12:19:31;4.67;;;4.13;;
7935;SDS011;4013;49.744;8.118;2024-03-02T12:21:59;4.07;;;3.53;;
7935;SDS011;4013;49.744;8.118;2024-03-02T12:24:27;4.47;;;3.50;;
7935;SDS011;4013;49.744;8.118;2024-03-02T12:26:54;6.37;;;4.23;;
7935;SDS011;4013;49.744;8.118;2024-03-02T12:29:24;4.87;;;4.23;;
7935;SDS011;4013;49.744;8.118;2024-03-02T12:31:52;6.77;;;3.90;;
7935;SDS011;4013;49.744;8.118;2024-03-02T12:34:19;3.63;;;3.20;;
7935;SDS011;4013;49.744;8.118;2024-03-02T12:36:48;3.53;;;3.17;;
7935;SDS011;4013;49.744;8.118;2024-03-02T12:39:18;7.23;;;5.10;;
7935;SDS011;4013;49.744;8.118;2024-03-02T12:41:46;7.57;;;5.20;;
7935;SDS011;4013;49.744;8.118;2024-03-02T12:44:15;3.67;;;3.20;;
7935;SDS011;4013;49.744;8.118;2024-03-02T12:46:44;5.30;;;3.77;;
7935;SDS011;4013;49.744;8.118;2024-03-02T12:49:12;4.27;;;2.90;;
7935;SDS011;4013;49.744;8.118;2024-03-02T12:51:41;4.80;;;3.57;;
7935;SDS011;4013;49.744;8.118;2024-03-02T12:54:10;5.83;;;3.50;;
7935;SDS011;4013;49.744;8.118;2024-03-02T12:56:37;4.80;;;3.30;;
7935;SDS011;4013;49.744;8.118;2024-03-02T12:59:05;3.10;;;2.80;;
7935;SDS011;4013;49.744;8.118;2024-03-02T13:01:32;3.17;;;2.87;;
7935;SDS011;4013;49.744;8.118;2024-03-02T13:04:01;3.63;;;2.80;;
7935;SDS011;4013;49.744;8.118;2024-03-02T13:06:28;3.87;;;2.70;;
7935;SDS011;4013;49.744;8.118;2024-03-02T13:08:56;4.00;;;2.57;;
7935;SDS011;4013;49.744;8.118;2024-03-02T13:11:22;3.30;;;2.80;;
7935;SDS011;4013;49.744;8.118;2024-03-02T13:13:50;3.27;;;2.93;;
7935;SDS011;4013;49.744;8.118;2024-03-02T13:16:18;3.30;;;2.60;;
7935;SDS011;4013;49.744;8.118;2024-03-02T13:18:46;2.40;;;2.20;;
7935;SDS011;4013;49.744;8.118;2024-03-02T13:21:14;2.57;;;2.30;;
7935;SDS011;4013;49.744;8.118;2024-03-02T13:23:41;3.30;;;2.90;;
7935;SDS011;4013;49.744;8.118;2024-03-02T13:26:08;3.73;;;2.97;;
7935;SDS011;4013;49.744;8.118;2024-03-02T13:28:37;3.97;;;3.00;;
7935;SDS011;4013;49.744;8.118;2024-03-02T13:31:05;3.47;;;2.90;;
7935;SDS011;4013;49.744;8.118;2024-03-02T13:33:32;4.33;;;2.97;;
7935;SDS011;4013;49.744;8.118;2024-03-02T13:35:59;3.80;;;2.80;;
7935;SDS011;4013;49.744;8.118;2024-03-02T13:38:28;4.37;;;2.53;;
7935;SDS011;4013;49.744;8.118;2024-03-02T13:40:55;2.80;;;2.50;;
7935;SDS011;4013;49.744;8.118;2024-03-02T13:43:22;2.63;;;2.30;;
7935;SDS011;4013;49.744;8.118;2024-03-02T13:45:49;3.07;;;2.53;;
7935;SDS011;4013;49.744;8.118;2024-03-02T13:48:17;2.60;;;2.30;;
7935;SDS011;4013;49.744;8.118;2024-03-02T13:50:44;3.67;;;2.70;;
7935;SDS011;4013;49.744;8.118;2024-03-02T13:53:11;3.57;;;2.70;;
7935;SDS011;4013;49.744;8.118;2024-03-02T13:55:40;2.60;;;2.17;;
7935;SDS011;4013;49.744;8.118;2024-03-02T13:58:08;2.30;;;2.07;;
7935;SDS011;4013;49.744;8.118;2024-03-02T14:00:35;2.37;;;2.17;;
7935;SDS011;4013;49.744;8.118;2024-03-02T14:03:03;2.67;;;2.17;;
7935;SDS011;4013;49.744;8.118;2024-03-02T14:05:32;2.30;;;2.10;;
7935;SDS011;4013;49.744;8.118;2024-03-02T14:07:59;32.00;;;4.33;;
7935;SDS011;4013;49.744;8.118;2024-03-02T14:10:26;3.73;;;3.30;;
7935;SDS011;4013;49.744;8.118;2024-03-02T14:12:58;2.70;;;2.50;;
7935;SDS011;4013;49.744;8.118;2024-03-02T14:15:25;3.63;;;2.80;;
7935;SDS011;4013;49.744;8.118;2024-03-02T14:17:51;3.37;;;2.30;;
7935;SDS011;4013;49.744;8.118;2024-03-02T14:20:18;4.07;;;2.47;;
7935;SDS011;4013;49.744;8.118;2024-03-02T14:22:48;3.03;;;2.50;;
7935;SDS011;4013;49.744;8.118;2024-03-02T14:25:16;1.97;;;1.60;;
7935;SDS011;4013;49.744;8.118;2024-03-02T14:27:44;2.40;;;2.10;;
7935;SDS011;4013;49.744;8.118;2024-03-02T14:30:14;2.20;;;2.00;;
7935;SDS011;4013;49.744;8.118;2024-03-02T14:32:41;1.90;;;1.40;;
7935;SDS011;4013;49.744;8.118;2024-03-02T14:35:08;1.63;;;1.20;;
7935;SDS011;4013;49.744;8.118;2024-03-02T14:37:36;1.33;;;1.20;;
7935;SDS011;4013;49.744;8.118;2024-03-02T14:40:03;1.83;;;1.47;;
7935;SDS011;4013;49.744;8.118;2024-03-02T14:42:31;7.40;;;1.70;;
7935;SDS011;4013;49.744;8.118;2024-03-02T14:44:58;1.50;;;1.40;;
7935;SDS011;4013;49.744;8.118;2024-03-02T14:47:29;2.30;;;1.40;;
7935;SDS011;4013;49.744;8.118;2024-03-02T14:49:58;2.47;;;1.83;;
7935;SDS011;4013;49.744;8.118;2024-03-02T14:52:25;2.13;;;1.20;;
7935;SDS011;4013;49.744;8.118;2024-03-02T14:54:52;1.80;;;1.20;;
7935;SDS011;4013;49.744;8.118;2024-03-02T14:57:19;1.20;;;1.00;;
7935;SDS011;4013;49.744;8.118;2024-03-02T14:59:46;1.53;;;1.30;;
7935;SDS011;4013;49.744;8.118;2024-03-02T15:02:13;1.93;;;1.10;;
7935;SDS011;4013;49.744;8.118;2024-03-02T15:04:41;1.27;;;1.13;;
7935;SDS011;4013;49.744;8.118;2024-03-02T15:07:09;1.30;;;1.20;;
7935;SDS011;4013;49.744;8.118;2024-03-02T15:09:36;1.10;;;1.00;;
7935;SDS011;4013;49.744;8.118;2024-03-02T15:12:05;1.37;;;1.27;;
7935;SDS011;4013;49.744;8.118;2024-03-02T15:14:34;1.47;;;1.33;;
7935;SDS011;4013;49.744;8.118;2024-03-02T15:17:03;1.60;;;1.50;;
7935;SDS011;4013;49.744;8.118;2024-03-02T15:19:31;1.70;;;1.30;;
7935;SDS011;4013;49.744;8.118;2024-03-02T15:22:00;2.70;;;1.10;;
7935;SDS011;4013;49.744;8.118;2024-03-02T15:24:27;1.30;;;1.20;;
7935;SDS011;4013;49.744;8.118;2024-03-02T15:26:54;1.20;;;1.10;;
7935;SDS011;4013;49.744;8.118;2024-03-02T15:29:22;1.40;;;1.03;;
7935;SDS011;4013;49.744;8.118;2024-03-02T15:31:53;1.77;;;1.27;;
7935;SDS011;4013;49.744;8.118;2024-03-02T15:34:20;1.07;;;1.00;;
7935;SDS011;4013;49.744;8.118;2024-03-02T15:36:48;2.50;;;1.80;;
7935;SDS011;4013;49.744;8.118;2024-03-02T15:39:16;2.10;;;1.80;;
7935;SDS011;4013;49.744;8.118;2024-03-02T15:41:44;9.93;;;2.37;;
7935;SDS011;4013;49.744;8.118;2024-03-02T15:44:11;4.07;;;2.30;;
7935;SDS011;4013;49.744;8.118;2024-03-02T15:46:38;3.00;;;2.00;;
7935;SDS011;4013;49.744;8.118;2024-03-02T15:49:05;1.83;;;1.70;;
7935;SDS011;4013;49.744;8.118;2024-03-02T15:51:33;6.33;;;2.20;;
7935;SDS011;4013;49.744;8.118;2024-03-02T15:54:01;1.80;;;1.40;;
7935;SDS011;4013;49.744;8.118;2024-03-02T15:56:31;2.50;;;1.53;;
7935;SDS011;4013;49.744;8.118;2024-03-02T15:58:58;1.70;;;1.53;;
7935;SDS011;4013;49.744;8.118;2024-03-02T16:01:24;1.60;;;1.30;;
7935;SDS011;4013;49.744;8.118;2024-03-02T16:03:51;1.57;;;1.47;;
7935;SDS011;4013;49.744;8.118;2024-03-02T16:06:18;3.50;;;1.50;;
7935;SDS011;4013;49.744;8.118;2024-03-02T16:08:47;6.40;;;2.00;;
7935;SDS011;4013;49.744;8.118;2024-03-02T16:11:14;2.13;;;1.67;;
7935;SDS011;4013;49.744;8.118;2024-03-02T16:13:42;2.07;;;1.80;;
7935;SDS011;4013;49.744;8.118;2024-03-02T16:16:10;3.50;;;2.63;;
7935;SDS011;4013;49.744;8.118;2024-03-02T16:18:37;4.50;;;3.00;;
7935;SDS011;4013;49.744;8.118;2024-03-02T16:21:04;4.93;;;2.90;;
7935;SDS011;4013;49.744;8.118;2024-03-02T16:23:32;4.50;;;2.50;;
7935;SDS011;4013;49.744;8.118;2024-03-02T16:25:59;5.90;;;3.77;;
7935;SDS011;4013;49.744;8.118;2024-03-02T16:28:26;6.93;;;4.53;;
7935;SDS011;4013;49.744;8.118;2024-03-02T16:30:55;6.00;;;3.87;;
7935;SDS011;4013;49.744;8.118;2024-03-02T16:33:21;5.20;;;3.77;;
7935;SDS011;4013;49.744;8.118;2024-03-02T16:35:49;4.33;;;2.90;;
7935;SDS011;4013;49.744;8.118;2024-03-02T16:38:16;7.07;;;4.40;;
7935;SDS011;4013;49.744;8.118;2024-03-02T16:40:43;5.77;;;3.20;;
7935;SDS011;4013;49.744;8.118;2024-03-02T16:43:11;9.37;;;3.27;;
7935;SDS011;4013;49.744;8.118;2024-03-02T16:45:38;5.30;;;2.47;;
7935;SDS011;4013;49.744;8.118;2024-03-02T16:48:07;2.63;;;2.00;;
7935;SDS011;4013;49.744;8.118;2024-03-02T16:50:34;2.87;;;2.13;;
7935;SDS011;4013;49.744;8.118;2024-03-02T16:53:00;2.30;;;2.00;;
7935;SDS011;4013;49.744;8.118;2024-03-02T16:55:28;3.70;;;2.90;;
7935;SDS011;4013;49.744;8.118;2024-03-02T16:57:55;3.57;;;2.00;;
7935;SDS011;4013;49.744;8.118;2024-03-02T17:00:21;2.37;;;2.10;;
7935;SDS011;4013;49.744;8.118;2024-03-02T17:02:48;4.13;;;2.13;;
7935;SDS011;4013;49.744;8.118;2024-03-02T17:05:18;2.90;;;2.20;;
7935;SDS011;4013;49.744;8.118;2024-03-02T17:07:46;2.83;;;2.20;;
7935;SDS011;4013;49.744;8.118;2024-03-02T17:10:13;3.67;;;2.10;;
7935;SDS011;4013;49.744;8.118;2024-03-02T17:12:40;3.87;;;2.70;;
7935;SDS011;4013;49.744;8.118;2024-03-02T17:15:07;5.07;;;3.00;;
7935;SDS011;4013;49.744;8.118;2024-03-02T17:17:35;3.63;;;2.90;;
7935;SDS011;4013;49.744;8.118;2024-03-02T17:20:02;5.23;;;3.00;;
7935;SDS011;4013;49.744;8.118;2024-03-02T17:22:35;4.07;;;2.90;;
7935;SDS011;4013;49.744;8.118;2024-03-02T17:25:02;3.93;;;2.77;;
7935;SDS011;4013;49.744;8.118;2024-03-02T17:27:29;3.20;;;2.70;;
7935;SDS011;4013;49.744;8.118;2024-03-02T17:29:56;4.17;;;3.37;;
7935;SDS011;4013;49.744;8.118;2024-03-02T17:32:23;4.17;;;3.10;;
7935;SDS011;4013;49.744;8.118;2024-03-02T17:34:50;4.57;;;3.50;;
7935;SDS011;4013;49.744;8.118;2024-03-02T17:37:17;4.37;;;3.00;;
7935;SDS011;4013;49.744;8.118;2024-03-02T17:39:45;4.93;;;4.27;;
7935;SDS011;4013;49.744;8.118;2024-03-02T17:42:12;8.97;;;5.83;;
7935;SDS011;4013;49.744;8.118;2024-03-02T17:44:39;4.87;;;3.50;;
7935;SDS011;4013;49.744;8.118;2024-03-02T17:47:06;6.37;;;4.80;;
7935;SDS011;4013;49.744;8.118;2024-03-02T17:49:33;3.73;;;3.17;;
7935;SDS011;4013;49.744;8.118;2024-03-02T17:52:00;5.97;;;3.63;;
7935;SDS011;4013;49.744;8.118;2024-03-02T17:54:27;4.80;;;3.47;;
7935;SDS011;4013;49.744;8.118;2024-03-02T17:56:55;5.47;;;3.50;;
7935;SDS011;4013;49.744;8.118;2024-03-02T17:59:22;6.00;;;3.60;;
7935;SDS011;4013;49.744;8.118;2024-03-02T18:01:49;5.90;;;3.63;;
7935;SDS011;4013;49.744;8.118;2024-03-02T18:04:16;6.50;;;4.40;;
7935;SDS011;4013;49.744;8.118;2024-03-02T18:06:43;5.30;;;3.97;;
7935;SDS011;4013;49.744;8.118;2024-03-02T18:09:10;6.13;;;3.67;;
7935;SDS011;4013;49.744;8.118;2024-03-02T18:11:37;6.27;;;4.60;;
7935;SDS011;4013;49.744;8.118;2024-03-02T18:14:06;7.00;;;4.93;;
7935;SDS011;4013;49.744;8.118;2024-03-02T18:16:33;5.90;;;4.43;;
7935;SDS011;4013;49.744;8.118;2024-03-02T18:19:00;6.80;;;4.83;;
7935;SDS011;4013;49.744;8.118;2024-03-02T18:21:27;8.50;;;5.43;;
7935;SDS011;4013;49.744;8.118;2024-03-02T18:23:54;7.17;;;4.97;;
7935;SDS011;4013;49.744;8.118;2024-03-02T18:26:21;9.37;;;5.30;;
7935;SDS011;4013;49.744;8.118;2024-03-02T18:28:49;7.00;;;4.93;;
7935;SDS011;4013;49.744;8.118;2024-03-02T18:31:17;7.30;;;4.60;;
7935;SDS011;4013;49.744;8.118;2024-03-02T18:33:48;7.43;;;5.03;;
7935;SDS011;4013;49.744;8.118;2024-03-02T18:36:15;7.03;;;4.67;;
7935;SDS011;4013;49.744;8.118;2024-03-02T18:38:42;8.97;;;5.13;;
7935;SDS011;4013;49.744;8.118;2024-03-02T18:41:09;7.30;;;5.00;;
7935;SDS011;4013;49.744;8.118;2024-03-02T18:43:36;14.93;;;8.73;;
7935;SDS011;4013;49.744;8.118;2024-03-02T18:46:02;9.73;;;6.03;;
7935;SDS011;4013;49.744;8.118;2024-03-02T18:48:36;7.20;;;5.30;;
7935;SDS011;4013;49.744;8.118;2024-03-02T18:51:07;8.43;;;5.40;;
7935;SDS011;4013;49.744;8.118;2024-03-02T18:53:34;7.73;;;5.47;;
7935;SDS011;4013;49.744;8.118;2024-03-02T18:56:01;14.27;;;7.17;;
7935;SDS011;4013;49.744;8.118;2024-03-02T18:58:29;10.40;;;6.57;;
7935;SDS011;4013;49.744;8.118;2024-03-02T19:00:56;10.60;;;6.73;;
7935;SDS011;4013;49.744;8.118;2024-03-02T19:03:25;16.77;;;10.00;;
7935;SDS011;4013;49.744;8.118;2024-03-02T19:05:53;18.47;;;10.10;;
7935;SDS011;4013;49.744;8.118;2024-03-02T19:08:20;17.33;;;10.67;;
7935;SDS011;4013;49.744;8.118;2024-03-02T19:10:48;21.70;;;11.43;;
7935;SDS011;4013;49.744;8.118;2024-03-02T19:13:15;23.70;;;12.00;;
7935;SDS011;4013;49.744;8.118;2024-03-02T19:15:42;20.40;;;11.30;;
7935;SDS011;4013;49.744;8.118;2024-03-02T19:18:09;20.87;;;11.33;;
7935;SDS011;4013;49.744;8.118;2024-03-02T19:20:36;19.80;;;10.17;;
7935;SDS011;4013;49.744;8.118;2024-03-02T19:23:05;20.93;;;10.47;;
7935;SDS011;4013;49.744;8.118;2024-03-02T19:25:33;20.83;;;10.80;;
7935;SDS011;4013;49.744;8.118;2024-03-02T19:27:59;16.90;;;9.23;;
7935;SDS011;4013;49.744;8.118;2024-03-02T19:30:26;23.80;;;10.67;;
7935;SDS011;4013;49.744;8.118;2024-03-02T19:32:53;21.10;;;11.13;;
7935;SDS011;4013;49.744;8.118;2024-03-02T19:35:20;21.73;;;10.33;;
7935;SDS011;4013;49.744;8.118;2024-03-02T19:37:47;19.97;;;11.33;;
7935;SDS011;4013;49.744;8.118;2024-03-02T19:40:17;21.70;;;11.17;;
7935;SDS011;4013;49.744;8.118;2024-03-02T19:42:44;18.67;;;10.40;;
7935;SDS011;4013;49.744;8.118;2024-03-02T19:45:11;22.47;;;11.90;;
7935;SDS011;4013;49.744;8.118;2024-03-02T19:47:38;18.40;;;9.90;;
7935;SDS011;4013;49.744;8.118;2024-03-02T19:50:08;17.43;;;9.80;;
7935;SDS011;4013;49.744;8.118;2024-03-02T19:52:39;16.47;;;9.53;;
7935;SDS011;4013;49.744;8.118;2024-03-02T19:55:06;16.90;;;9.33;;
7935;SDS011;4013;49.744;8.118;2024-03-02T19:57:35;14.87;;;8.70;;
7935;SDS011;4013;49.744;8.118;2024-03-02T20:00:09;11.73;;;6.90;;
7935;SDS011;4013;49.744;8.118;2024-03-02T20:02:37;15.37;;;9.00;;
7935;SDS011;4013;49.744;8.118;2024-03-02T20:05:04;16.70;;;8.60;;
7935;SDS011;4013;49.744;8.118;2024-03-02T20:07:33;17.43;;;8.97;;
7935;SDS011;4013;49.744;8.118;2024-03-02T20:10:00;11.17;;;6.37;;
7935;SDS011;4013;49.744;8.118;2024-03-02T20:12:31;13.83;;;7.20;;
7935;SDS011;4013;49.744;8.118;2024-03-02T20:14:59;10.80;;;6.33;;
7935;SDS011;4013;49.744;8.118;2024-03-02T20:17:27;8.27;;;5.30;;
7935;SDS011;4013;49.744;8.118;2024-03-02T20:19:54;8.20;;;5.60;;
7935;SDS011;4013;49.744;8.118;2024-03-02T20:22:20;9.93;;;5.20;;
7935;SDS011;4013;49.744;8.118;2024-03-02T20:24:48;7.83;;;4.80;;
7935;SDS011;4013;49.744;8.118;2024-03-02T20:27:16;12.80;;;7.97;;
7935;SDS011;4013;49.744;8.118;2024-03-02T20:29:43;12.53;;;7.17;;
7935;SDS011;4013;49.744;8.118;2024-03-02T20:32:12;12.63;;;7.97;;
7935;SDS011;4013;49.744;8.118;2024-03-02T20:34:39;13.13;;;7.97;;
7935;SDS011;4013;49.744;8.118;2024-03-02T20:37:05;9.97;;;6.37;;
7935;SDS011;4013;49.744;8.118;2024-03-02T20:39:32;9.97;;;5.70;;
7935;SDS011;4013;49.744;8.118;2024-03-02T20:41:59;11.03;;;6.50;;
7935;SDS011;4013;49.744;8.118;2024-03-02T20:44:26;10.77;;;6.60;;